Current Weather

Chicago O'Hare International

Chicago, Illinois (KORD)

Report from: Tuesday, July 16, 2024 3:51 AM CDT
Current time: Tuesday, July 16, 2024 4:10 AM CDT

Nearby weather – Weather history – Daily summaries
Weather forecast

Temperature20.6°C (69.1°F)
Dew point19.4°C (66.9°F)
Winds 3 kts (1.5 m/s, 3.5 mph) South-Southwest (210°)
Visibility10 mi. (16.1 km)
Clouds Few clouds 1,000 ft. (305 m)
Scattered clouds 25,000 ft. (7,620 m)
Altimeter29.75 in.Hg (1007 mB)
Relative humidity93 %
Density altitude1,172 ft. (357 m)
Sea-level pressure100.7 kPa (1007 mB, 29.74 in.Hg)
Remarks System requires maintenance
Automated weather observing station with precipitation discriminator
Pressure rising, then falling
Flight conditions Visual Meteorological Conditions
Raw dataKORD 160851Z 21003KT 10SM FEW010 SCT250 21/19 A2975 RMK AO2 SLP070 T02060194 50006 $
An error has occurred. This application may no longer respond until reloaded. Reload 🗙